Time;durP1;ratioP1;P1;durP2;ratioP2;P2;SDS_P1;SDS_P2;PMS_P1;PMS_P2;Temp;Humidity;BMP_temperature;BMP_pressure;BME280_temperature;BME280_humidity;BME280_pressure;Samples;Min_cycle;Max_cycle;Signal;HPM_P1;HPM_P2
2022/07/21 00:00:33;;;;;;;2.35;2.15;;;18.70;99.90;;;;;;5095666;28;20538;-76
2022/07/21 00:03:01;;;;;;;3.97;3.65;;;18.60;99.90;;;;;;5095270;28;20031;-76
2022/07/21 00:05:27;;;;;;;3.33;2.47;;;18.70;99.90;;;;;;5077316;28;20035;-76
2022/07/21 00:07:54;;;;;;;4.80;2.92;;;18.70;99.90;;;;;;5077069;28;20020;-76
2022/07/21 00:10:21;;;;;;;3.40;2.72;;;18.70;99.90;;;;;;5095163;28;20411;-76
2022/07/21 00:12:47;;;;;;;3.28;2.80;;;18.80;99.90;;;;;;5076954;28;20020;-76
2022/07/21 00:15:15;;;;;;;17.73;3.65;;;18.80;99.90;;;;;;5095247;28;20020;-76
2022/07/21 00:17:41;;;;;;;4.22;2.55;;;18.80;99.90;;;;;;5095430;28;20398;-76
2022/07/21 00:20:08;;;;;;;4.28;1.98;;;18.80;99.90;;;;;;5076951;28;20460;-76
2022/07/21 00:22:34;;;;;;;2.42;1.67;;;18.80;99.90;;;;;;5095225;28;20035;-78
2022/07/21 00:25:00;;;;;;;5.15;3.00;;;18.70;99.90;;;;;;5076489;28;20396;-77
2022/07/21 00:27:26;;;;;;;8.00;3.63;;;18.70;99.90;;;;;;5076627;28;20073;-76
2022/07/21 00:29:52;;;;;;;5.15;3.20;;;18.60;99.90;;;;;;5076611;28;20032;-77
2022/07/21 00:32:17;;;;;;;2.72;2.17;;;18.70;99.90;;;;;;5094851;28;20472;-78
2022/07/21 00:34:46;;;;;;;4.45;2.60;;;18.70;99.90;;;;;;5094772;28;20038;-76
2022/07/21 00:37:12;;;;;;;3.08;2.67;;;18.70;99.90;;;;;;5094860;28;20020;-76
2022/07/21 00:39:37;;;;;;;6.47;3.63;;;18.70;99.90;;;;;;5094907;28;20095;-76
2022/07/21 00:42:04;;;;;;;8.75;3.55;;;18.70;99.90;;;;;;5094641;28;20028;-76
2022/07/21 00:44:30;;;;;;;4.60;2.45;;;18.70;99.90;;;;;;5076301;28;20036;-76
2022/07/21 00:46:57;;;;;;;3.10;2.13;;;18.70;99.90;;;;;;5094176;28;20031;-76
2022/07/21 00:49:23;;;;;;;3.53;2.75;;;18.80;99.90;;;;;;5094435;28;20024;-76
2022/07/21 00:51:49;;;;;;;4.68;2.53;;;18.80;99.90;;;;;;5076250;28;20364;-76
2022/07/21 00:54:17;;;;;;;7.88;4.22;;;18.80;99.90;;;;;;5094177;28;20097;-76
2022/07/21 00:56:43;;;;;;;4.38;2.88;;;18.70;99.90;;;;;;5094413;28;20028;-76
2022/07/21 00:59:10;;;;;;;7.40;3.90;;;18.80;99.90;;;;;;5094463;28;20027;-76
2022/07/21 01:01:36;;;;;;;6.30;3.17;;;18.70;99.90;;;;;;5094337;28;20388;-76
2022/07/21 01:04:01;;;;;;;4.78;2.92;;;18.70;99.90;;;;;;5094017;28;20036;-77
2022/07/21 01:06:27;;;;;;;5.32;3.13;;;18.70;99.90;;;;;;5075818;28;20020;-76
2022/07/21 01:08:54;;;;;;;7.32;2.60;;;18.70;99.90;;;;;;5075805;28;20023;-76
2022/07/21 01:11:25;;;;;;;8.48;4.22;;;18.70;99.90;;;;;;5094129;28;20016;-76
2022/07/21 01:13:51;;;;;;;4.57;3.22;;;18.70;99.90;;;;;;5094238;28;20606;-77
2022/07/21 01:16:16;;;;;;;4.13;2.55;;;18.70;99.90;;;;;;5094062;28;20091;-76
2022/07/21 01:18:42;;;;;;;4.57;3.30;;;18.70;99.90;;;;;;5094077;28;20024;-76
2022/07/21 01:21:32;;;;;;;3.47;2.80;;;18.70;99.90;;;;;;5075707;28;20487;-76
2022/07/21 01:23:59;;;;;;;4.15;3.75;;;18.70;99.90;;;;;;5093771;28;20024;-77
2022/07/21 01:26:25;;;;;;;3.60;3.13;;;18.70;99.90;;;;;;5075527;28;20028;-76
2022/07/21 01:28:51;;;;;;;5.75;3.75;;;18.70;99.90;;;;;;5093604;28;20031;-76
2022/07/21 01:31:17;;;;;;;3.38;2.53;;;18.70;99.90;;;;;;5093744;28;20026;-76
2022/07/21 01:33:43;;;;;;;4.88;3.58;;;18.70;99.90;;;;;;5093817;28;20024;-76
2022/07/21 01:36:09;;;;;;;4.03;2.78;;;18.70;99.90;;;;;;5093761;28;20051;-76
2022/07/21 01:41:32;;;;;;;4.65;3.10;;;18.70;99.90;;;;;;5094086;28;20435;-76
2022/07/21 01:44:00;;;;;;;6.18;2.72;;;18.70;99.90;;;;;;5093401;28;20063;-76
2022/07/21 01:46:28;;;;;;;2.67;2.37;;;18.70;99.90;;;;;;5093433;28;20060;-76
2022/07/21 01:48:54;;;;;;;4.95;2.95;;;18.70;99.90;;;;;;5093393;28;20026;-76
2022/07/21 01:51:20;;;;;;;3.88;3.53;;;18.70;99.90;;;;;;5093593;28;20103;-76
2022/07/21 01:53:45;;;;;;;2.75;2.47;;;18.80;99.90;;;;;;5075127;28;20120;-76
2022/07/21 01:56:11;;;;;;;3.03;2.65;;;18.80;99.90;;;;;;5093644;28;20365;-76
2022/07/21 01:58:37;;;;;;;2.35;2.15;;;18.70;99.90;;;;;;5074914;28;20031;-76
2022/07/21 02:01:03;;;;;;;3.25;2.55;;;18.80;99.90;;;;;;5075205;28;20024;-78
2022/07/21 02:03:28;;;;;;;4.47;2.65;;;18.80;99.90;;;;;;5075141;28;20388;-76
2022/07/21 02:06:03;;;;;;;3.65;2.60;;;18.80;99.90;;;;;;5093192;28;20039;-77
2022/07/21 02:08:29;;;;;;;4.65;4.25;;;18.80;99.90;;;;;;5088405;28;20058;-76
2022/07/21 02:10:55;;;;;;;5.45;2.53;;;18.80;99.90;;;;;;5093032;28;20031;-76
2022/07/21 02:13:21;;;;;;;4.03;2.22;;;18.70;99.90;;;;;;5093200;28;20028;-76
2022/07/21 02:15:46;;;;;;;3.80;2.78;;;18.60;99.90;;;;;;5093153;28;20020;-76
2022/07/21 02:18:12;;;;;;;7.07;3.10;;;18.60;99.90;;;;;;5093090;28;20024;-77
2022/07/21 02:20:37;;;;;;;5.40;4.65;;;18.60;99.90;;;;;;5093378;28;20023;-76
2022/07/21 02:23:03;;;;;;;3.13;2.38;;;18.60;99.90;;;;;;5074899;28;20465;-76
2022/07/21 02:25:29;;;;;;;3.65;3.03;;;18.60;99.90;;;;;;5092999;28;20488;-77
2022/07/21 02:27:54;;;;;;;2.63;2.30;;;18.60;99.90;;;;;;5092839;28;20017;-77
2022/07/21 02:30:20;;;;;;;3.88;2.80;;;18.60;99.90;;;;;;5092994;28;20024;-76
2022/07/21 02:32:46;;;;;;;4.22;2.67;;;18.50;99.90;;;;;;5092970;28;20036;-77
2022/07/21 02:35:12;;;;;;;7.88;3.75;;;18.50;99.90;;;;;;5074884;28;20027;-77
2022/07/21 02:37:38;;;;;;;4.97;2.67;;;18.50;99.90;;;;;;5093053;28;20445;-77
2022/07/21 02:40:05;;;;;;;4.65;2.70;;;18.50;99.90;;;;;;5074990;28;20477;-77
2022/07/21 02:42:30;;;;;;;3.85;2.20;;;18.40;99.90;;;;;;5074813;28;20024;-76
2022/07/21 02:44:56;;;;;;;4.22;2.53;;;18.40;99.90;;;;;;5074568;28;20639;-77
2022/07/21 02:47:22;;;;;;;6.32;3.65;;;18.30;99.90;;;;;;5074545;28;20016;-77
2022/07/21 02:49:47;;;;;;;4.78;2.63;;;18.30;99.90;;;;;;5074670;28;20024;-78
2022/07/21 02:52:14;;;;;;;5.20;3.47;;;18.30;99.90;;;;;;5074755;28;20111;-77
2022/07/21 02:54:40;;;;;;;2.65;2.45;;;18.20;99.90;;;;;;5074452;28;20047;-77
2022/07/21 02:57:05;;;;;;;4.40;4.00;;;18.20;99.90;;;;;;5074620;28;20020;-77
2022/07/21 02:59:31;;;;;;;3.45;2.92;;;18.10;99.90;;;;;;5092803;28;20020;-76
2022/07/21 03:01:57;;;;;;;7.60;2.45;;;18.10;99.90;;;;;;5092716;28;20028;-77
2022/07/21 03:04:23;;;;;;;9.15;3.00;;;18.10;99.90;;;;;;5074352;28;20059;-76
2022/07/21 03:06:49;;;;;;;3.47;2.53;;;18.10;99.90;;;;;;5074397;28;20023;-77
2022/07/21 03:09:15;;;;;;;3.22;2.97;;;18.00;99.90;;;;;;5092560;28;20388;-76
2022/07/21 03:11:40;;;;;;;4.20;3.30;;;18.00;99.90;;;;;;5095819;28;20468;-77
2022/07/21 03:14:06;;;;;;;3.30;2.80;;;18.00;99.90;;;;;;5096372;28;20035;-77
2022/07/21 03:16:32;;;;;;;3.50;3.13;;;18.00;99.90;;;;;;5096192;28;20028;-77
2022/07/21 03:18:57;;;;;;;4.53;2.65;;;18.10;99.90;;;;;;5078114;28;20027;-77
2022/07/21 03:21:23;;;;;;;3.53;3.03;;;18.00;99.90;;;;;;5078105;28;20120;-77
2022/07/21 03:23:49;;;;;;;3.45;3.15;;;18.00;99.90;;;;;;5096051;28;20479;-77
2022/07/21 03:26:15;;;;;;;5.28;3.17;;;18.00;99.90;;;;;;5077875;28;20468;-77
2022/07/21 03:28:42;;;;;;;3.35;2.92;;;17.90;99.90;;;;;;5077812;28;20028;-77
2022/07/21 03:31:08;;;;;;;3.17;2.55;;;17.90;99.90;;;;;;5077950;28;20073;-77
2022/07/21 03:33:34;;;;;;;5.90;3.10;;;17.80;99.90;;;;;;5096122;28;20400;-77
2022/07/21 03:36:00;;;;;;;2.72;2.28;;;17.70;99.90;;;;;;5095710;28;20028;-76
2022/07/21 03:38:26;;;;;;;3.33;2.35;;;17.70;99.90;;;;;;5096014;28;20020;-77
2022/07/21 03:40:52;;;;;;;7.05;3.42;;;17.60;99.90;;;;;;5095713;28;20439;-77
2022/07/21 03:43:18;;;;;;;5.18;3.25;;;17.60;99.90;;;;;;5095633;28;20016;-77
2022/07/21 03:45:44;;;;;;;5.38;3.08;;;17.60;99.90;;;;;;5077485;28;20028;-77
2022/07/21 03:48:10;;;;;;;4.88;2.58;;;17.50;99.90;;;;;;5077453;28;20047;-77
2022/07/21 03:50:38;;;;;;;9.10;3.42;;;17.50;99.90;;;;;;5095789;28;20020;-77
2022/07/21 03:53:04;;;;;;;9.30;4.65;;;17.40;99.90;;;;;;5095449;28;20024;-76
2022/07/21 03:55:30;;;;;;;4.53;3.47;;;17.50;99.90;;;;;;5077479;28;20111;-76
2022/07/21 03:58:02;;;;;;;2.35;2.15;;;17.40;99.90;;;;;;5095481;28;20028;-77
2022/07/21 04:00:35;;;;;;;4.50;2.90;;;17.40;99.90;;;;;;5095069;28;20496;-77
2022/07/21 04:03:01;;;;;;;3.13;2.67;;;17.40;99.90;;;;;;5095375;28;20046;-76
2022/07/21 04:05:28;;;;;;;5.00;3.05;;;17.40;99.90;;;;;;5095081;28;20043;-77
2022/07/21 04:07:54;;;;;;;3.45;3.00;;;17.30;99.90;;;;;;5095455;28;20107;-77
2022/07/21 04:10:26;;;;;;;3.63;3.05;;;17.30;99.90;;;;;;5077241;28;20365;-78
2022/07/21 04:12:53;;;;;;;5.63;2.75;;;17.20;99.90;;;;;;5077290;28;20028;-77
2022/07/21 04:15:19;;;;;;;3.20;2.00;;;17.30;99.90;;;;;;5095273;28;20012;-77
2022/07/21 04:17:45;;;;;;;3.08;2.78;;;17.30;99.90;;;;;;5095117;28;20077;-77
2022/07/21 04:20:13;;;;;;;3.88;2.55;;;17.20;99.90;;;;;;5095039;28;20388;-77
2022/07/21 04:22:39;;;;;;;2.45;2.35;;;17.30;99.90;;;;;;5094315;28;20031;-76
2022/07/21 04:25:07;;;;;;;4.70;4.28;;;17.30;99.90;;;;;;5076806;28;20459;-77
2022/07/21 04:27:33;;;;;;;3.30;3.00;;;17.40;99.90;;;;;;5095048;28;20016;-77
2022/07/21 04:29:59;;;;;;;2.92;2.25;;;17.40;99.90;;;;;;5076753;28;20436;-77
2022/07/21 04:32:25;;;;;;;3.65;3.35;;;17.40;99.90;;;;;;5095028;28;20050;-76
2022/07/21 04:34:51;;;;;;;3.72;2.90;;;17.60;99.90;;;;;;5076716;28;20080;-77
2022/07/21 04:37:17;;;;;;;5.05;3.33;;;17.60;99.90;;;;;;5094871;28;20104;-76
2022/07/21 04:39:42;;;;;;;1.92;1.77;;;17.60;99.90;;;;;;5094595;28;20173;-76
2022/07/21 04:42:08;;;;;;;4.35;2.80;;;17.70;99.90;;;;;;5094611;28;20031;-77
2022/07/21 04:44:34;;;;;;;5.97;3.08;;;17.70;99.90;;;;;;5094553;28;20040;-77
2022/07/21 04:46:59;;;;;;;10.23;3.97;;;17.80;99.90;;;;;;5094766;28;20031;-77
2022/07/21 04:49:25;;;;;;;4.03;2.75;;;17.90;99.90;;;;;;5076464;28;20038;-77
2022/07/21 04:51:51;;;;;;;3.47;2.80;;;17.90;99.90;;;;;;5094550;28;20020;-77
2022/07/21 04:54:16;;;;;;;2.08;1.98;;;18.10;99.90;;;;;;5094157;28;20373;-77
2022/07/21 04:56:43;;;;;;;6.07;3.28;;;18.20;99.90;;;;;;5094300;28;20024;-78
2022/07/21 04:59:09;;;;;;;4.00;3.20;;;18.30;99.90;;;;;;5076001;28;20062;-77
2022/07/21 05:01:36;;;;;;;2.55;2.35;;;18.40;99.90;;;;;;5094125;28;20052;-77
2022/07/21 05:04:02;;;;;;;4.50;3.47;;;18.30;99.90;;;;;;5094268;28;20035;-77
2022/07/21 05:06:27;;;;;;;2.35;1.95;;;18.30;99.90;;;;;;5094348;28;20441;-77
2022/07/21 05:08:53;;;;;;;3.20;2.90;;;18.30;99.90;;;;;;5094232;28;20025;-77
2022/07/21 05:11:19;;;;;;;2.65;1.65;;;18.30;99.90;;;;;;5094701;28;20046;-76
2022/07/21 05:13:44;;;;;;;8.02;2.92;;;18.30;99.90;;;;;;5075736;28;20024;-76
2022/07/21 05:16:10;;;;;;;3.50;2.40;;;18.30;99.90;;;;;;5075664;28;20480;-76
2022/07/21 05:18:36;;;;;;;3.30;2.78;;;18.30;99.90;;;;;;5093748;28;20031;-76
2022/07/21 05:21:02;;;;;;;4.55;1.67;;;18.30;99.90;;;;;;5093973;28;20381;-77
2022/07/21 05:23:27;;;;;;;3.58;2.25;;;18.40;99.90;;;;;;5095490;28;20024;-77
2022/07/21 05:25:53;;;;;;;6.38;2.67;;;18.40;99.90;;;;;;5099548;28;20024;-77
2022/07/21 05:28:19;;;;;;;2.45;2.10;;;18.40;99.90;;;;;;5093993;28;20020;-77
2022/07/21 05:30:44;;;;;;;3.08;2.25;;;18.50;99.90;;;;;;5093833;28;20032;-77
2022/07/21 05:33:10;;;;;;;6.97;3.03;;;18.40;99.90;;;;;;5093290;28;20065;-77
2022/07/21 05:35:36;;;;;;;2.08;1.95;;;18.50;99.90;;;;;;5074928;28;20083;-77
2022/07/21 05:38:02;;;;;;;3.90;2.58;;;18.60;99.90;;;;;;5093670;28;20016;-77
2022/07/21 05:40:28;;;;;;;4.10;1.90;;;18.60;99.90;;;;;;5093613;28;20024;-76
2022/07/21 05:42:54;;;;;;;4.10;2.72;;;18.70;99.90;;;;;;5093605;28;20097;-77
2022/07/21 05:45:19;;;;;;;2.25;2.05;;;18.70;99.90;;;;;;5093479;28;20476;-77
2022/07/21 05:47:45;;;;;;;2.55;1.25;;;18.80;99.90;;;;;;5075346;28;20047;-79
2022/07/21 05:50:12;;;;;;;1.48;1.38;;;18.80;99.90;;;;;;5093497;28;20035;-79
2022/07/21 05:52:38;;;;;;;4.03;2.67;;;18.90;99.90;;;;;;5093261;28;20052;-79
2022/07/21 05:55:04;;;;;;;8.80;2.65;;;19.10;99.90;;;;;;5093280;28;20044;-79
2022/07/21 05:57:30;;;;;;;1.55;1.48;;;19.20;99.90;;;;;;5075203;28;20153;-78
2022/07/21 05:59:56;;;;;;;1.10;1.10;;;19.30;99.90;;;;;;5093403;28;20115;-79
2022/07/21 06:02:21;;;;;;;2.25;1.42;;;19.30;99.90;;;;;;5079130;28;20074;-79
2022/07/21 06:04:47;;;;;;;6.22;2.35;;;19.40;99.90;;;;;;5093246;28;20111;-78
2022/07/21 06:07:13;;;;;;;1.45;1.35;;;19.50;99.90;;;;;;5093226;28;20024;-79
2022/07/21 06:09:38;;;;;;;1.75;1.65;;;19.50;99.90;;;;;;5093056;28;20031;-79
2022/07/21 06:12:04;;;;;;;1.50;1.40;;;19.60;99.90;;;;;;5093243;28;20067;-79
2022/07/21 06:14:30;;;;;;;1.33;1.23;;;19.70;99.90;;;;;;5093186;28;20020;-79
2022/07/21 06:16:55;;;;;;;3.95;2.05;;;19.80;99.90;;;;;;5093445;28;20119;-79
2022/07/21 06:19:21;;;;;;;1.55;1.15;;;20.20;99.90;;;;;;5093278;28;20031;-78
2022/07/21 06:21:47;;;;;;;3.03;2.55;;;20.60;99.90;;;;;;5093394;28;20476;-80
2022/07/21 06:24:13;;;;;;;1.40;1.30;;;20.70;99.90;;;;;;5093139;28;20400;-79
2022/07/21 06:26:39;;;;;;;1.65;1.30;;;20.70;99.90;;;;;;5074954;28;20048;-77
2022/07/21 06:29:06;;;;;;;1.30;1.20;;;20.70;99.90;;;;;;5092922;28;20522;-79
2022/07/21 06:31:32;;;;;;;1.75;1.08;;;20.70;99.90;;;;;;5074681;28;20028;-76
2022/07/21 06:33:57;;;;;;;1.35;1.17;;;20.50;99.90;;;;;;5074976;28;20393;-77
2022/07/21 06:36:23;;;;;;;1.95;1.85;;;20.40;99.90;;;;;;5074863;28;20024;-77
2022/07/21 06:38:49;;;;;;;2.28;1.63;;;20.40;99.90;;;;;;5074930;28;20024;-77
2022/07/21 06:41:14;;;;;;;1.80;1.70;;;20.40;99.90;;;;;;5092977;28;20032;-78
2022/07/21 06:43:40;;;;;;;5.93;1.58;;;20.40;99.90;;;;;;5092875;28;20456;-81
2022/07/21 06:46:06;;;;;;;1.88;1.77;;;20.50;99.90;;;;;;5095305;28;20047;-80
2022/07/21 06:48:31;;;;;;;1.23;0.90;;;20.50;99.90;;;;;;5078741;28;20032;-79
2022/07/21 06:50:57;;;;;;;2.88;2.10;;;20.60;99.90;;;;;;5096903;28;20024;-89
2022/07/21 06:53:24;;;;;;;4.15;1.80;;;20.80;99.90;;;;;;5097025;28;20032;-81
2022/07/21 06:55:54;;;;;;;1.88;1.77;;;20.90;99.90;;;;;;5078634;28;20039;-81
2022/07/21 06:58:22;;;;;;;1.42;1.23;;;21.50;99.90;;;;;;5096917;28;20031;-79
2022/07/21 07:00:49;;;;;;;3.70;1.37;;;22.30;99.90;;;;;;5096649;28;20012;-79
2022/07/21 07:03:16;;;;;;;1.17;1.10;;;23.30;99.90;;;;;;5096463;28;20024;-79
2022/07/21 07:05:43;;;;;;;1.00;0.98;;;24.40;99.90;;;;;;5096628;28;20020;-81
2022/07/21 07:08:09;;;;;;;2.90;1.88;;;24.60;99.90;;;;;;5078344;28;20048;-80
2022/07/21 07:10:35;;;;;;;1.02;0.95;;;24.80;99.90;;;;;;5078135;28;20503;-78
2022/07/21 07:13:01;;;;;;;2.13;1.65;;;24.90;99.90;;;;;;5096469;28;20020;-79
2022/07/21 07:15:28;;;;;;;1.90;1.80;;;24.60;99.90;;;;;;5096415;28;20538;-78
2022/07/21 07:17:54;;;;;;;1.08;0.98;;;24.50;99.90;;;;;;5096376;28;20020;-78
2022/07/21 07:20:20;;;;;;;1.90;1.60;;;24.40;99.90;;;;;;5096155;28;20103;-78
2022/07/21 07:22:46;;;;;;;1.73;1.50;;;24.60;99.90;;;;;;5096107;28;20020;-78
2022/07/21 07:25:16;;;;;;;0.68;0.50;;;25.20;99.90;;;;;;5095969;28;20039;-79
2022/07/21 07:27:42;;;;;;;1.15;1.05;;;25.20;99.90;;;;;;5096052;28;20438;-79
2022/07/21 07:30:09;;;;;;;1.67;1.10;;;25.60;99.90;;;;;;5078038;28;20027;-78
2022/07/21 07:32:34;;;;;;;13.05;1.35;;;25.70;99.90;;;;;;5096228;28;20035;-78
2022/07/21 07:35:00;;;;;;;3.85;2.47;;;25.60;99.90;;;;;;5096001;28;20036;-81
2022/07/21 07:37:26;;;;;;;1.38;1.23;;;25.70;99.90;;;;;;5096306;28;20468;-82
2022/07/21 07:39:51;;;;;;;1.00;0.77;;;26.30;99.90;;;;;;5077839;28;20487;-82
2022/07/21 07:42:17;;;;;;;0.93;0.93;;;27.00;99.90;;;;;;5077992;28;20024;-80
2022/07/21 07:44:43;;;;;;;1.73;0.80;;;26.60;98.00;;;;;;5096088;28;20028;-83
2022/07/21 07:47:09;;;;;;;3.15;1.45;;;25.70;99.90;;;;;;5078126;28;20484;-82
2022/07/21 07:49:35;;;;;;;2.03;0.75;;;25.50;99.90;;;;;;5096028;28;20066;-82
2022/07/21 07:52:02;;;;;;;1.95;1.02;;;;;;;;;;5077618;28;20028;-81
2022/07/21 07:54:28;;;;;;;0.65;0.65;;;26.40;99.90;;;;;;5095718;28;20507;-83
2022/07/21 07:56:54;;;;;;;1.20;0.45;;;26.80;99.90;;;;;;5094830;28;20024;-84
2022/07/21 07:59:20;;;;;;;2.10;0.65;;;26.30;99.90;;;;;;5095636;28;20055;-80
2022/07/21 08:01:46;;;;;;;0.70;0.70;;;25.90;99.90;;;;;;5077138;28;20023;-80
2022/07/21 08:04:14;;;;;;;0.93;0.70;;;25.80;99.90;;;;;;5077042;28;20484;-80
2022/07/21 08:06:41;;;;;;;0.60;0.60;;;26.00;99.90;;;;;;5095412;28;20020;-80
2022/07/21 08:09:08;;;;;;;0.47;0.38;;;26.20;99.90;;;;;;5095149;28;20557;-80
2022/07/21 08:11:33;;;;;;;2.20;1.15;;;26.60;99.90;;;;;;5077399;28;20379;-79
2022/07/21 08:13:59;;;;;;;5.72;1.17;;;27.10;99.90;;;;;;5095204;28;20103;-80
2022/07/21 08:16:24;;;;;;;2.03;0.55;;;27.60;97.50;;;;;;5077071;28;20016;-79
2022/07/21 08:18:50;;;;;;;1.00;0.85;;;26.30;99.90;;;;;;5076873;28;20028;-79
2022/07/21 08:21:16;;;;;;;0.65;0.38;;;25.70;99.90;;;;;;5095110;28;20054;-79
2022/07/21 08:23:41;;;;;;;1.00;0.98;;;24.40;99.90;;;;;;5094946;28;20027;-81
2022/07/21 08:26:07;;;;;;;1.83;1.25;;;24.90;99.90;;;;;;5076971;28;20027;-79
2022/07/21 08:28:33;;;;;;;0.57;0.45;;;25.90;99.90;;;;;;5095125;28;20069;-80
2022/07/21 08:30:59;;;;;;;1.08;1.02;;;26.40;99.90;;;;;;5076730;28;20024;-80
2022/07/21 08:33:24;;;;;;;0.60;0.60;;;27.20;99.90;;;;;;5094743;28;20032;-80
2022/07/21 08:35:50;;;;;;;1.77;1.20;;;27.70;96.00;;;;;;5094622;28;20028;-80
2022/07/21 08:38:16;;;;;;;0.43;0.43;;;27.40;96.30;;;;;;5076607;28;20447;-80
2022/07/21 08:40:44;;;;;;;0.70;0.70;;;27.10;97.30;;;;;;5076777;28;20034;-79
2022/07/21 08:43:12;;;;;;;1.05;0.60;;;26.90;99.90;;;;;;5094829;28;20023;-80
2022/07/21 08:45:39;;;;;;;0.20;0.20;;;26.70;96.80;;;;;;5076547;28;20492;-80
2022/07/21 08:48:07;;;;;;;1.08;1.08;;;26.70;97.80;;;;;;5095083;28;20020;-79
2022/07/21 08:50:39;;;;;;;3.75;1.05;;;26.90;99.90;;;;;;5094694;28;20047;-81
2022/07/21 08:53:05;;;;;;;3.75;1.58;;;27.20;96.20;;;;;;5076076;28;20028;-77
2022/07/21 08:55:34;;;;;;;3.50;0.98;;;28.00;92.80;;;;;;5094409;28;20103;-79
2022/07/21 08:58:00;;;;;;;15.38;1.70;;;28.60;90.60;;;;;;5094348;28;20055;-77
2022/07/21 09:00:26;;;;;;;0.60;0.60;;;29.30;86.20;;;;;;5094465;28;20032;-77
2022/07/21 09:03:14;;;;;;;2.08;1.58;;;28.60;80.80;;;;;;5094447;28;20020;-77
2022/07/21 09:05:41;;;;;;;0.70;0.70;;;27.90;90.80;;;;;;5094140;28;20130;-75
2022/07/21 09:08:07;;;;;;;1.13;1.08;;;;;;;;;;5093890;28;20016;-77
2022/07/21 09:10:33;;;;;;;1.27;0.55;;;27.10;96.50;;;;;;5075841;28;20023;-77
2022/07/21 09:13:03;;;;;;;1.13;1.02;;;27.30;99.90;;;;;;5093998;28;20031;-75
2022/07/21 09:15:33;;;;;;;1.20;1.10;;;27.10;96.80;;;;;;5076111;28;20024;-77
2022/07/21 09:18:08;;;;;;;0.45;0.45;;;27.80;93.60;;;;;;5076237;28;20049;-77
2022/07/21 09:20:35;;;;;;;1.33;1.23;;;28.70;92.90;;;;;;5094147;28;20093;-77
2022/07/21 09:23:21;;;;;;;0.40;0.40;;;29.40;95.50;;;;;;5075801;28;20028;-77
2022/07/21 09:25:49;;;;;;;0.50;0.50;;;29.40;67.50;;;;;;5075727;28;20036;-78
2022/07/21 09:28:27;;;;;;;1.02;1.02;;;29.50;66.60;;;;;;5093769;28;20082;-76
2022/07/21 09:30:57;;;;;;;1.70;0.95;;;29.50;68.30;;;;;;5093654;28;20149;-76
2022/07/21 09:33:23;;;;;;;1.65;1.55;;;29.30;72.10;;;;;;5075628;28;20016;-76
2022/07/21 09:35:57;;;;;;;0.40;0.40;;;29.00;70.30;;;;;;5075418;28;20024;-76
2022/07/21 09:38:24;;;;;;;1.13;0.45;;;28.40;70.30;;;;;;5093935;28;20028;-76
2022/07/21 09:40:50;;;;;;;1.65;0.65;;;27.50;94.10;;;;;;5075684;28;20081;-77
2022/07/21 09:43:34;;;;;;;0.65;0.60;;;27.20;88.80;;;;;;5075374;28;20032;-77
2022/07/21 09:46:02;;;;;;;0.60;0.60;;;27.60;94.00;;;;;;5093868;28;20039;-77
2022/07/21 09:48:36;;;;;;;0.95;0.60;;;28.50;81.60;;;;;;5080696;28;20026;-76
2022/07/21 09:51:21;;;;;;;0.45;0.45;;;28.60;77.30;;;;;;5093535;28;20491;-75
2022/07/21 09:53:55;;;;;;;1.58;0.52;;;29.20;74.70;;;;;;5093281;28;20127;-75
2022/07/21 09:56:24;;;;;;;1.77;1.67;;;29.40;66.50;;;;;;5075436;28;20050;-75
2022/07/21 09:58:52;;;;;;;2.40;1.50;;;29.60;69.90;;;;;;5093431;28;20040;-75
2022/07/21 10:01:18;;;;;;;1.65;0.73;;;29.80;67.30;;;;;;5093357;28;20028;-75
2022/07/21 10:03:45;;;;;;;1.02;0.85;;;29.40;68.20;;;;;;5093182;28;20541;-75
2022/07/21 10:06:11;;;;;;;0.30;0.30;;;28.60;79.90;;;;;;5075031;28;20024;-75
2022/07/21 10:08:38;;;;;;;0.38;0.30;;;27.70;85.80;;;;;;5093146;28;20024;-74
2022/07/21 10:11:04;;;;;;;0.95;0.70;;;26.90;91.70;;;;;;5093251;28;20031;-76
2022/07/21 10:13:30;;;;;;;3.22;1.23;;;26.10;99.70;;;;;;5093229;28;20028;-72
2022/07/21 10:15:57;;;;;;;1.65;1.13;;;26.40;99.90;;;;;;5093235;28;20019;-75
2022/07/21 10:19:09;;;;;;;0.63;0.57;;;26.80;94.40;;;;;;5075052;28;20053;-75
2022/07/21 10:22:02;;;;;;;2.15;0.77;;;26.80;98.10;;;;;;5073043;28;20032;-75
2022/07/21 10:24:29;;;;;;;0.50;0.50;;;27.50;88.80;;;;;;5092977;28;20063;-76
2022/07/21 10:27:08;;;;;;;0.32;0.30;;;27.90;79.50;;;;;;5074836;28;20107;-75
2022/07/21 10:29:48;;;;;;;0.65;0.60;;;28.30;73.90;;;;;;5092973;28;20050;-74
2022/07/21 10:32:15;;;;;;;1.13;0.75;;;27.40;68.60;;;;;;5075130;28;20036;-74
2022/07/21 10:34:42;;;;;;;1.30;0.98;;;27.30;73.00;;;;;;5093208;28;20027;-75
2022/07/21 10:37:09;;;;;;;0.40;0.40;;;27.60;72.00;;;;;;5093219;28;20016;-75
2022/07/21 10:39:35;;;;;;;0.70;0.70;;;;;;;;;;5093412;28;20016;-74
2022/07/21 10:42:16;;;;;;;0.52;0.40;;;28.60;69.30;;;;;;5093245;28;20024;-75
2022/07/21 10:44:46;;;;;;;1.00;0.90;;;28.50;64.70;;;;;;5075014;28;20040;-75
2022/07/21 10:47:20;;;;;;;0.65;0.65;;;28.70;66.60;;;;;;5093005;28;20403;-75
2022/07/21 10:49:57;;;;;;;0.40;0.30;;;28.80;71.10;;;;;;5093209;28;20074;-75
2022/07/21 10:52:35;;;;;;;1.40;1.08;;;28.80;63.40;;;;;;5093419;28;20028;-74
2022/07/21 10:55:28;;;;;;;0.82;0.30;;;28.90;61.60;;;;;;5092918;28;20416;-75
2022/07/21 10:58:14;;;;;;;0.75;0.43;;;29.50;64.90;;;;;;5093283;28;20462;-77
2022/07/21 11:00:44;;;;;;;0.88;0.50;;;29.30;61.50;;;;;;5092973;28;20023;-75
2022/07/21 11:03:20;;;;;;;0.90;0.52;;;28.90;58.80;;;;;;5092775;28;20468;-75
2022/07/21 11:06:05;;;;;;;0.40;0.40;;;29.40;60.40;;;;;;5074630;28;20123;-75
2022/07/21 11:08:35;;;;;;;0.45;0.20;;;29.40;61.30;;;;;;5092919;28;20020;-75
2022/07/21 11:11:18;;;;;;;0.52;0.50;;;29.40;60.40;;;;;;5092969;28;20077;-75
2022/07/21 11:14:09;;;;;;;0.93;0.93;;;29.40;59.60;;;;;;5074568;28;20395;-76
2022/07/21 11:19:30;;;;;;;1.20;1.13;;;30.40;57.40;;;;;;5092665;28;20062;-75
2022/07/21 11:21:58;;;;;;;0.30;0.30;;;30.20;59.00;;;;;;5092629;28;20027;-74
2022/07/21 11:24:26;;;;;;;0.38;0.38;;;30.10;58.00;;;;;;5074347;28;20034;-75
2022/07/21 11:27:00;;;;;;;6.68;0.80;;;30.40;60.60;;;;;;5074372;28;20078;-74
2022/07/21 11:29:26;;;;;;;0.32;0.32;;;30.80;56.80;;;;;;5092581;28;20020;-75
2022/07/21 11:31:53;;;;;;;4.05;0.50;;;31.00;56.20;;;;;;5092791;28;20016;-75
2022/07/21 11:34:19;;;;;;;0.88;0.85;;;;;;;;;;5096146;28;20020;-76
2022/07/21 11:36:46;;;;;;;1.15;0.88;;;31.60;53.60;;;;;;5096152;28;20103;-75
2022/07/21 11:39:15;;;;;;;0.52;0.52;;;31.30;55.60;;;;;;5096041;28;20103;-76
2022/07/21 11:41:42;;;;;;;0.98;0.90;;;31.30;53.70;;;;;;5077706;28;20020;-74
2022/07/21 11:44:11;;;;;;;0.30;0.30;;;31.50;56.10;;;;;;5095756;28;20559;-75
2022/07/21 11:46:48;;;;;;;2.40;0.60;;;31.10;55.10;;;;;;5095798;28;20478;-75
2022/07/21 11:49:14;;;;;;;0.50;0.40;;;30.70;55.50;;;;;;5095846;28;20016;-75
2022/07/21 11:51:46;;;;;;;0.43;0.43;;;31.20;54.20;;;;;;5095802;28;20587;-75
2022/07/21 11:54:24;;;;;;;0.55;0.40;;;31.20;54.80;;;;;;5077325;28;20044;-74
2022/07/21 11:56:51;;;;;;;0.65;0.50;;;31.80;54.70;;;;;;5077728;28;20066;-75
2022/07/21 11:59:17;;;;;;;0.10;0.10;;;32.40;52.50;;;;;;5077890;28;20468;-75
2022/07/21 12:01:50;;;;;;;0.70;0.70;;;31.70;54.50;;;;;;5077411;28;20059;-74
2022/07/21 12:04:31;;;;;;;0.82;0.68;;;31.40;55.30;;;;;;5095552;28;20039;-74
2022/07/21 12:06:58;;;;;;;1.42;0.50;;;31.80;55.80;;;;;;5077622;28;20102;-74
2022/07/21 12:09:24;;;;;;;0.95;0.47;;;32.30;52.50;;;;;;5077621;28;20376;-77
2022/07/21 12:11:51;;;;;;;0.40;0.40;;;32.30;53.20;;;;;;5077520;28;20023;-75
2022/07/21 12:14:17;;;;;;;0.93;0.38;;;;;;;;;;5095553;28;20016;-75
2022/07/21 12:16:51;;;;;;;0.25;0.25;;;31.90;51.50;;;;;;5095504;28;20435;-75
2022/07/21 12:19:17;;;;;;;0.47;0.47;;;32.20;51.10;;;;;;5076975;28;20020;-75
2022/07/21 12:21:49;;;;;;;1.60;0.70;;;32.40;51.80;;;;;;5095082;28;20096;-75
2022/07/21 12:24:15;;;;;;;9.27;1.67;;;32.00;52.10;;;;;;5095098;28;20039;-75
2022/07/21 12:26:41;;;;;;;0.52;0.47;;;31.80;53.30;;;;;;5095267;28;20055;-75
2022/07/21 12:29:07;;;;;;;0.68;0.50;;;;;;;;;;5095053;28;20109;-74
2022/07/21 12:31:35;;;;;;;0.60;0.60;;;30.20;55.00;;;;;;5095087;28;20024;-76
2022/07/21 12:34:13;;;;;;;2.00;0.35;;;30.10;56.50;;;;;;5094850;28;20137;-74
2022/07/21 12:36:40;;;;;;;0.40;0.40;;;30.70;57.00;;;;;;5094636;28;20063;-75
2022/07/21 12:42:35;;;;;;;0.40;0.40;;;32.70;53.30;;;;;;5094780;28;20077;-75
2022/07/21 12:45:16;;;;;;;1.55;0.40;;;32.70;50.30;;;;;;5076356;28;20052;-75
2022/07/21 12:47:42;;;;;;;0.73;0.73;;;33.20;50.40;;;;;;5094670;28;20325;-75
2022/07/21 12:50:13;;;;;;;0.93;0.93;;;33.10;50.00;;;;;;5094657;28;20028;-75
2022/07/21 12:52:39;;;;;;;0.65;0.65;;;33.30;50.60;;;;;;5094695;28;20149;-76
2022/07/21 12:55:06;;;;;;;0.68;0.60;;;33.80;51.10;;;;;;5076146;28;20052;-75
2022/07/21 12:57:33;;;;;;;0.95;0.73;;;34.10;48.20;;;;;;5094228;28;20027;-72
2022/07/21 12:59:59;;;;;;;0.68;0.68;;;34.40;50.00;;;;;;5094341;28;20377;-72